Time;durP1;ratioP1;P1;durP2;ratioP2;P2;SDS_P1;SDS_P2;PMS_P1;PMS_P2;Temp;Humidity;BMP_temperature;BMP_pressure;BME280_temperature;BME280_humidity;BME280_pressure;Samples;Min_cycle;Max_cycle;Signal;HPM_P1;HPM_P2
2021/01/29 00:00:22;;;;;;;;;;;;;;;;;;5110751;28;20918;-67
2021/01/29 00:02:49;;;;;;;;;;;;;;;;;;5110507;28;20378;-66
2021/01/29 00:05:15;;;;;;;;;;;;;;;;;;5109299;28;19928;-66
2021/01/29 00:07:42;;;;;;;;;;;;;;;;;;5110103;28;20443;-66
2021/01/29 00:10:08;;;;;;;;;;;;;;;;;;5112000;28;19965;-66
2021/01/29 00:12:34;;;;;;;;;;;;;;;;;;5110319;28;19923;-66
2021/01/29 00:15:01;;;;;;;;;;;;;;;;;;5112164;28;19924;-66
2021/01/29 00:17:27;;;;;;;;;;;;;;;;;;5110542;28;19934;-67
2021/01/29 00:19:54;;;;;;;;;;;;;;;;;;5111553;28;20010;-66
2021/01/29 00:22:20;;;;;;;;;;;;;;;;;;5111478;28;20310;-66
2021/01/29 00:24:47;;;;;;;;;;;;;;;;;;5108653;28;20389;-66
2021/01/29 00:27:14;;;;;;;;;;;;;;;;;;5110827;28;20015;-66
2021/01/29 00:29:40;;;;;;;;;;;;;;;;;;5111006;28;19931;-66
2021/01/29 00:32:06;;;;;;;;;;;;;;;;;;5111384;28;19924;-67
2021/01/29 00:34:33;;;;;;;;;;;;;;;;;;5111248;28;19934;-66
2021/01/29 00:37:00;;;;;;;;;;;;;;;;;;5110562;28;19924;-66
2021/01/29 00:39:26;;;;;;;;;;;;;;;;;;5110894;28;19923;-66
2021/01/29 00:41:53;;;;;;;;;;;;;;;;;;5110806;28;19934;-66
2021/01/29 00:44:19;;;;;;;;;;;;;;;;;;5110018;28;19924;-66
2021/01/29 00:46:46;;;;;;;;;;;;;;;;;;5111360;28;19923;-66
2021/01/29 00:49:12;;;;;;;;;;;;;;;;;;5108701;28;19924;-67
2021/01/29 00:51:39;;;;;;;;;;;;;;;;;;5110525;28;19931;-67
2021/01/29 00:54:05;;;;;;;;;;;;;;;;;;5105774;28;19924;-67
2021/01/29 00:56:31;;;;;;;;;;;;;;;;;;5111101;28;20007;-67
2021/01/29 00:58:58;;;;;;;;;;;;;;;;;;5107862;28;19923;-67
2021/01/29 01:01:24;;;;;;;;;;;;;;;;;;5103487;28;20326;-67
2021/01/29 01:03:51;;;;;;;;;;;;;;;;;;5108226;28;20376;-66
2021/01/29 01:06:17;;;;;;;;;;;;;;;;;;5107572;28;20433;-67
2021/01/29 01:08:44;;;;;;;;;;;;;;;;;;5110071;28;20401;-67
2021/01/29 01:11:10;;;;;;;;;;;;;;;;;;5110941;28;20398;-67
2021/01/29 01:13:36;;;;;;;;;;;;;;;;;;5110488;28;19923;-70
2021/01/29 01:16:03;;;;;;;;;;;;;;;;;;5109215;28;19935;-67
2021/01/29 01:18:29;;;;;;;;;;;;;;;;;;5108768;28;19923;-67
2021/01/29 01:20:56;;;;;;;;;;;;;;;;;;5103693;28;19988;-67
2021/01/29 01:23:22;;;;;;;;;;;;;;;;;;5108425;28;19924;-67
2021/01/29 01:25:48;;;;;;;;;;;;;;;;;;5111223;28;19931;-67
2021/01/29 01:28:15;;;;;;;;;;;;;;;;;;5110942;28;19930;-67
2021/01/29 01:30:41;;;;;;;;;;;;;;;;;;5110272;28;19924;-67
2021/01/29 01:33:08;;;;;;;;;;;;;;;;;;5095518;28;19928;-67
2021/01/29 01:35:34;;;;;;;;;;;;;;;;;;5106791;22;19932;-65
2021/01/29 01:38:01;;;;;;;;;;;;;;;;;;5082182;28;20318;-67
2021/01/29 01:40:27;;;;;;;;;;;;;;;;;;5084408;28;20302;-67
2021/01/29 01:42:54;;;;;;;;;;;;;;;;;;5075248;28;20295;-68
2021/01/29 01:45:20;;;;;;;;;;;;;;;;;;5074436;28;20414;-67
2021/01/29 01:47:47;;;;;;;;;;;;;;;;;;5076904;28;20422;-67
2021/01/29 01:50:13;;;;;;;;;;;;;;;;;;5081367;28;20526;-67
2021/01/29 01:52:39;;;;;;;;;;;;;;;;;;5075931;28;20382;-68
2021/01/29 01:55:06;;;;;;;;;;;;;;;;;;5071548;28;20210;-67
2021/01/29 01:57:32;;;;;;;;;;;;;;;;;;5070050;28;19925;-67
2021/01/29 01:59:59;;;;;;;;;;;;;;;;;;5073318;28;19924;-67
2021/01/29 02:02:25;;;;;;;;;;;;;;;;;;5079201;28;19924;-67
2021/01/29 02:04:52;;;;;;;;;;;;;;;;;;5079976;28;20380;-67
2021/01/29 02:07:19;;;;;;;;;;;;;;;;;;5069783;28;19925;-67
2021/01/29 02:09:45;;;;;;;;;;;;;;;;;;5086781;28;19924;-67
2021/01/29 02:12:11;;;;;;;;;;;;;;;;;;5074846;28;19931;-67
2021/01/29 02:14:38;;;;;;;;;;;;;;;;;;5080127;28;20009;-67
2021/01/29 02:17:04;;;;;;;;;;;;;;;;;;5081357;28;20030;-67
2021/01/29 02:19:31;;;;;;;;;;;;;;;;;;5079048;28;19940;-67
2021/01/29 02:21:57;;;;;;;;;;;;;;;;;;5078502;28;20022;-66
2021/01/29 02:24:24;;;;;;;;;;;;;;;;;;5074074;28;19924;-67
2021/01/29 02:26:50;;;;;;;;;;;;;;;;;;5076544;28;19929;-66
2021/01/29 02:29:17;;;;;;;;;;;;;;;;;;5073102;28;19996;-66
2021/01/29 02:31:43;;;;;;;;;;;;;;;;;;5072726;28;19929;-64
2021/01/29 02:34:09;;;;;;;;;;;;;;;;;;5071950;28;19925;-66
2021/01/29 02:36:36;;;;;;;;;;;;;;;;;;5071759;28;19931;-66
2021/01/29 02:39:02;;;;;;;;;;;;;;;;;;5076968;28;19939;-66
2021/01/29 02:41:29;;;;;;;;;;;;;;;;;;5078652;28;19950;-65
2021/01/29 02:43:55;;;;;;;;;;;;;;;;;;5077844;28;20019;-66
2021/01/29 02:46:22;;;;;;;;;;;;;;;;;;5079011;28;19931;-66
2021/01/29 02:48:48;;;;;;;;;;;;;;;;;;5074244;28;20008;-67
2021/01/29 02:51:14;;;;;;;;;;;;;;;;;;5081356;28;19972;-66
2021/01/29 02:53:41;;;;;;;;;;;;;;;;;;5082660;28;19927;-66
2021/01/29 02:56:07;;;;;;;;;;;;;;;;;;5077254;28;19928;-66
2021/01/29 02:58:34;;;;;;;;;;;;;;;;;;5072333;28;19929;-67
2021/01/29 03:01:00;;;;;;;;;;;;;;;;;;5089489;28;19924;-65
2021/01/29 03:03:27;;;;;;;;;;;;;;;;;;5081386;28;19924;-66
2021/01/29 03:05:53;;;;;;;;;;;;;;;;;;5083643;28;19933;-66
2021/01/29 03:08:20;;;;;;;;;;;;;;;;;;5070492;28;19935;-66
2021/01/29 03:10:46;;;;;;;;;;;;;;;;;;5071475;28;19925;-65
2021/01/29 03:13:12;;;;;;;;;;;;;;;;;;5079197;28;19932;-66
2021/01/29 03:15:39;;;;;;;;;;;;;;;;;;5085262;28;19924;-66
2021/01/29 03:18:05;;;;;;;;;;;;;;;;;;5077236;28;19925;-66
2021/01/29 03:20:32;;;;;;;;;;;;;;;;;;5073291;28;20002;-65
2021/01/29 03:22:58;;;;;;;;;;;;;;;;;;5071534;28;19924;-65
2021/01/29 03:25:25;;;;;;;;;;;;;;;;;;5079061;28;19977;-65
2021/01/29 03:27:51;;;;;;;;;;;;;;;;;;5074424;28;19930;-67
2021/01/29 03:30:17;;;;;;;;;;;;;;;;;;5077453;28;19970;-65
2021/01/29 03:32:44;;;;;;;;;;;;;;;;;;5075642;28;19928;-66
2021/01/29 03:35:10;;;;;;;;;;;;;;;;;;5081438;28;20307;-66
2021/01/29 03:37:37;;;;;;;;;;;;;;;;;;5077754;28;20387;-66
2021/01/29 03:40:03;;;;;;;;;;;;;;;;;;5069798;28;20415;-66
2021/01/29 03:42:30;;;;;;;;;;;;;;;;;;5073309;28;20288;-66
2021/01/29 03:44:56;;;;;;;;;;;;;;;;;;5077701;28;19933;-66
2021/01/29 03:47:22;;;;;;;;;;;;;;;;;;5079777;28;19928;-66
2021/01/29 03:49:49;;;;;;;;;;;;;;;;;;5075071;28;20302;-65
2021/01/29 03:52:15;;;;;;;;;;;;;;;;;;5077399;28;20440;-65
2021/01/29 03:54:42;;;;;;;;;;;;;;;;;;5072076;28;19932;-66
2021/01/29 03:57:08;;;;;;;;;;;;;;;;;;5076012;28;19925;-66
2021/01/29 03:59:35;;;;;;;;;;;;;;;;;;5071752;28;20390;-65
2021/01/29 04:02:01;;;;;;;;;;;;;;;;;;5075852;28;19924;-65
2021/01/29 04:04:28;;;;;;;;;;;;;;;;;;5075262;28;19925;-66
2021/01/29 04:06:54;;;;;;;;;;;;;;;;;;5063805;28;19932;-66
2021/01/29 04:09:20;;;;;;;;;;;;;;;;;;5072946;28;20014;-66
2021/01/29 04:11:47;;;;;;;;;;;;;;;;;;5073380;28;19924;-66
2021/01/29 04:14:13;;;;;;;;;;;;;;;;;;5073203;28;19933;-66
2021/01/29 04:16:40;;;;;;;;;;;;;;;;;;5066657;28;19924;-65
2021/01/29 04:19:06;;;;;;;;;;;;;;;;;;5074495;28;19940;-66
2021/01/29 04:21:33;;;;;;;;;;;;;;;;;;5071839;28;19933;-66
2021/01/29 04:23:59;;;;;;;;;;;;;;;;;;5076713;28;19970;-65
2021/01/29 04:26:26;;;;;;;;;;;;;;;;;;5067545;28;19929;-65
2021/01/29 04:28:52;;;;;;;;;;;;;;;;;;5062521;28;19928;-66
2021/01/29 04:31:19;;;;;;;;;;;;;;;;;;5067149;28;19999;-66
2021/01/29 04:33:45;;;;;;;;;;;;;;;;;;5071168;28;19925;-66
2021/01/29 04:36:14;;;;;;;;;;;;;;;;;;5069354;28;19924;-66
2021/01/29 04:38:40;;;;;;;;;;;;;;;;;;5070542;28;20002;-66
2021/01/29 04:41:06;;;;;;;;;;;;;;;;;;5071468;28;19950;-66
2021/01/29 04:43:33;;;;;;;;;;;;;;;;;;5074556;28;20002;-67
2021/01/29 04:45:59;;;;;;;;;;;;;;;;;;5076403;28;19933;-66
2021/01/29 04:48:26;;;;;;;;;;;;;;;;;;5062317;28;19924;-66
2021/01/29 04:50:52;;;;;;;;;;;;;;;;;;5063589;28;19935;-66
2021/01/29 04:53:19;;;;;;;;;;;;;;;;;;5080026;28;19924;-66
2021/01/29 04:55:45;;;;;;;;;;;;;;;;;;5071698;28;19924;-66
2021/01/29 04:58:11;;;;;;;;;;;;;;;;;;5070622;28;19970;-66
2021/01/29 05:00:41;;;;;;;;;;;;;;;;;;5073014;28;19924;-66
2021/01/29 05:03:07;;;;;;;;;;;;;;;;;;5072461;28;19930;-67
2021/01/29 05:05:34;;;;;;;;;;;;;;;;;;5082453;28;19924;-67
2021/01/29 05:08:00;;;;;;;;;;;;;;;;;;5072658;28;19925;-67
2021/01/29 05:10:27;;;;;;;;;;;;;;;;;;5067611;28;19924;-66
2021/01/29 05:12:53;;;;;;;;;;;;;;;;;;5070460;28;19970;-66
2021/01/29 05:15:20;;;;;;;;;;;;;;;;;;5075174;28;20194;-66
2021/01/29 05:17:46;;;;;;;;;;;;;;;;;;5068979;28;19924;-66
2021/01/29 05:20:12;;;;;;;;;;;;;;;;;;5080363;28;19928;-66
2021/01/29 05:22:40;;;;;;;;;;;;;;;;;;5079177;28;19924;-66
2021/01/29 05:25:06;;;;;;;;;;;;;;;;;;5077326;28;19934;-67
2021/01/29 05:27:33;;;;;;;;;;;;;;;;;;5081271;28;20271;-66
2021/01/29 05:30:00;;;;;;;;;;;;;;;;;;5076744;28;19944;-66
2021/01/29 05:32:27;;;;;;;;;;;;;;;;;;5075202;28;20007;-67
2021/01/29 05:34:54;;;;;;;;;;;;;;;;;;5082994;28;21841;-67
2021/01/29 05:37:22;;;;;;;;;;;;;;;;;;5080576;28;19942;-68
2021/01/29 05:39:48;;;;;;;;;;;;;;;;;;5076348;28;19992;-67
2021/01/29 05:42:15;;;;;;;;;;;;;;;;;;5073455;28;20405;-66
2021/01/29 05:44:41;;;;;;;;;;;;;;;;;;5075578;28;19924;-67
2021/01/29 05:47:08;;;;;;;;;;;;;;;;;;5077089;28;21536;-67
2021/01/29 05:49:34;;;;;;;;;;;;;;;;;;5074731;28;20001;-66
2021/01/29 05:52:01;;;;;;;;;;;;;;;;;;5074566;28;20023;-66
2021/01/29 05:54:27;;;;;;;;;;;;;;;;;;5071656;28;20384;-67
2021/01/29 05:56:54;;;;;;;;;;;;;;;;;;5083179;28;19966;-66
2021/01/29 05:59:21;;;;;;;;;;;;;;;;;;5076107;28;19924;-66
2021/01/29 06:01:47;;;;;;;;;;;;;;;;;;5076467;28;19936;-67
2021/01/29 06:04:14;;;;;;;;;;;;;;;;;;5086382;28;19924;-67
2021/01/29 06:06:40;;;;;;;;;;;;;;;;;;5069009;28;19924;-67
2021/01/29 06:09:07;;;;;;;;;;;;;;;;;;5081624;28;19971;-66
2021/01/29 06:11:33;;;;;;;;;;;;;;;;;;5069608;28;19981;-69
2021/01/29 06:14:00;;;;;;;;;;;;;;;;;;5068989;28;19928;-66
2021/01/29 06:16:26;;;;;;;;;;;;;;;;;;5073440;28;19931;-66
2021/01/29 06:18:52;;;;;;;;;;;;;;;;;;5074595;28;19928;-66
2021/01/29 06:21:19;;;;;;;;;;;;;;;;;;5074799;28;19931;-66
2021/01/29 06:23:45;;;;;;;;;;;;;;;;;;5077801;28;19933;-65
2021/01/29 06:26:12;;;;;;;;;;;;;;;;;;5075109;28;19969;-66
2021/01/29 06:28:38;;;;;;;;;;;;;;;;;;5075742;28;19928;-66
2021/01/29 06:31:05;;;;;;;;;;;;;;;;;;5072863;28;20102;-66
2021/01/29 06:33:31;;;;;;;;;;;;;;;;;;5071565;28;19931;-66
2021/01/29 06:35:58;;;;;;;;;;;;;;;;;;5071995;28;20733;-67
2021/01/29 06:38:24;;;;;;;;;;;;;;;;;;5075113;28;19946;-66
2021/01/29 06:40:50;;;;;;;;;;;;;;;;;;5078123;28;19992;-66
2021/01/29 06:43:17;;;;;;;;;;;;;;;;;;5075993;28;19932;-66
2021/01/29 06:45:43;;;;;;;;;;;;;;;;;;5076112;28;19924;-67
2021/01/29 06:48:10;;;;;;;;;;;;;;;;;;5074009;28;20007;-67
2021/01/29 06:50:36;;;;;;;;;;;;;;;;;;5060711;28;20182;-66
2021/01/29 06:53:03;;;;;;;;;;;;;;;;;;5056897;28;20286;-67
2021/01/29 06:55:29;;;;;;;;;;;;;;;;;;5058267;28;20018;-68
2021/01/29 06:57:56;;;;;;;;;;;;;;;;;;5058252;28;20281;-67
2021/01/29 07:00:22;;;;;;;;;;;;;;;;;;5058893;28;20343;-67
2021/01/29 07:02:48;;;;;;;;;;;;;;;;;;5056403;28;19924;-67
2021/01/29 07:05:15;;;;;;;;;;;;;;;;;;5057884;28;19925;-67
2021/01/29 07:07:41;;;;;;;;;;;;;;;;;;5054460;28;19931;-67
2021/01/29 07:10:08;;;;;;;;;;;;;;;;;;5055495;28;19927;-68
2021/01/29 07:12:36;;;;;;;;;;;;;;;;;;5079607;28;19932;-68
2021/01/29 07:15:03;;;;;;;;;;;;;;;;;;5080994;28;20395;-67
2021/01/29 07:17:29;;;;;;;;;;;;;;;;;;5063337;28;20380;-67
2021/01/29 07:19:55;;;;;;;;;;;;;;;;;;5078680;28;19925;-66
2021/01/29 07:22:22;;;;;;;;;;;;;;;;;;5074322;28;19935;-66
2021/01/29 07:24:49;;;;;;;;;;;;;;;;;;5077728;28;20380;-66
2021/01/29 07:27:15;;;;;;;;;;;;;;;;;;5072863;28;19990;-66
2021/01/29 07:29:42;;;;;;;;;;;;;;;;;;5069293;28;19931;-67
2021/01/29 07:32:08;;;;;;;;;;;;;;;;;;5071033;28;19930;-67
2021/01/29 07:34:34;;;;;;;;;;;;;;;;;;5080688;28;19963;-66
2021/01/29 07:37:01;;;;;;;;;;;;;;;;;;5076684;22;19925;-65
2021/01/29 07:39:27;;;;;;;;;;;;;;;;;;5055298;28;19933;-65
2021/01/29 07:41:54;;;;;;;;;;;;;;;;;;5060977;28;19939;-66
2021/01/29 07:44:20;;;;;;;;;;;;;;;;;;5069706;28;19929;-66
2021/01/29 07:46:47;;;;;;;;;;;;;;;;;;5061018;28;19925;-65
2021/01/29 07:49:13;;;;;;;;;;;;;;;;;;5056238;28;19925;-65
2021/01/29 07:51:39;;;;;;;;;;;;;;;;;;5066952;28;19932;-65
2021/01/29 07:54:06;;;;;;;;;;;;;;;;;;5052103;28;20301;-65
2021/01/29 07:56:32;;;;;;;;;;;;;;;;;;5037582;28;20036;-65
2021/01/29 07:58:59;;;;;;;;;;;;;;;;;;5044144;28;20281;-65
2021/01/29 08:01:25;;;;;;;;;;;;;;;;;;5044469;28;20296;-65
2021/01/29 08:03:52;;;;;;;;;;;;;;;;;;5042772;28;20292;-65
2021/01/29 08:06:18;;;;;;;;;;;;;;;;;;5040668;28;19978;-65
2021/01/29 08:08:44;;;;;;;;;;;;;;;;;;5057470;28;19925;-65
2021/01/29 08:11:11;;;;;;;;;;;;;;;;;;5046922;28;19935;-65
2021/01/29 08:13:37;;;;;;;;;;;;;;;;;;5042753;28;19928;-65
2021/01/29 08:16:05;;;;;;;;;;;;;;;;;;5056614;28;19925;-66
2021/01/29 08:18:31;;;;;;;;;;;;;;;;;;5052288;28;20296;-65
2021/01/29 08:20:58;;;;;;;;;;;;;;;;;;5051669;28;19925;-66
2021/01/29 08:23:24;;;;;;;;;;;;;;;;;;5039118;28;19925;-64
2021/01/29 08:25:51;;;;;;;;;;;;;;;;;;5053724;28;20380;-64
2021/01/29 08:28:17;;;;;;;;;;;;;;;;;;5041806;28;19925;-64
2021/01/29 08:30:43;;;;;;;;;;;;;;;;;;5050851;28;19936;-64
2021/01/29 08:33:10;;;;;;;;;;;;;;;;;;5052338;28;19928;-65
2021/01/29 08:35:36;;;;;;;;;;;;;;;;;;5038464;28;19933;-65
2021/01/29 08:38:03;;;;;;;;;;;;;;;;;;5052116;28;19931;-66
2021/01/29 08:40:29;;;;;;;;;;;;;;;;;;5058358;28;20445;-65
2021/01/29 08:42:57;;;;;;;;;;;;;;;;;;5044541;28;20020;-65
2021/01/29 08:45:24;;;;;;;;;;;;;;;;;;5048715;28;19944;-68
2021/01/29 08:47:54;;;;;;;;;;;;;;;;;;5048338;28;20015;-65
2021/01/29 08:50:20;;;;;;;;;;;;;;;;;;5035773;28;19933;-66
2021/01/29 08:52:48;;;;;;;;;;;;;;;;;;5058900;28;19924;-65
2021/01/29 08:55:14;;;;;;;;;;;;;;;;;;5061466;28;19925;-66
2021/01/29 08:57:41;;;;;;;;;;;;;;;;;;5045103;28;19929;-65
2021/01/29 09:00:07;;;;;;;;;;;;;;;;;;5062830;28;19978;-65
2021/01/29 09:02:34;;;;;;;;;;;;;;;;;;5046777;28;19930;-65
2021/01/29 09:05:00;;;;;;;;;;;;;;;;;;5038124;28;19929;-66
2021/01/29 09:07:27;;;;;;;;;;;;;;;;;;5037039;28;20014;-65
2021/01/29 09:09:54;;;;;;;;;;;;;;;;;;5058256;28;19936;-65
2021/01/29 09:12:21;;;;;;;;;;;;;;;;;;5047456;28;19964;-66
2021/01/29 09:14:47;;;;;;;;;;;;;;;;;;5051047;28;20019;-65
2021/01/29 09:17:13;;;;;;;;;;;;;;;;;;5047718;28;19931;-65
2021/01/29 09:19:40;;;;;;;;;;;;;;;;;;5055415;28;19928;-65
2021/01/29 09:22:06;;;;;;;;;;;;;;;;;;5050153;28;20015;-65
2021/01/29 09:24:33;;;;;;;;;;;;;;;;;;5034749;28;19925;-65
2021/01/29 09:26:59;;;;;;;;;;;;;;;;;;5045097;28;19991;-66
2021/01/29 09:29:26;;;;;;;;;;;;;;;;;;5056487;28;20387;-66
2021/01/29 09:31:52;;;;;;;;;;;;;;;;;;5057613;28;19950;-66
2021/01/29 09:34:19;;;;;;;;;;;;;;;;;;5060522;28;20040;-66
2021/01/29 09:36:45;;;;;;;;;;;;;;;;;;5056529;28;20273;-66
2021/01/29 09:39:11;;;;;;;;;;;;;;;;;;5042691;28;20023;-65
2021/01/29 09:41:38;;;;;;;;;;;;;;;;;;5058211;28;20311;-65
2021/01/29 09:44:05;;;;;;;;;;;;;;;;;;5043159;28;20288;-66
2021/01/29 09:46:31;;;;;;;;;;;;;;;;;;5046568;28;20306;-66
2021/01/29 09:48:57;;;;;;;;;;;;;;;;;;5052404;28;19933;-65
2021/01/29 09:51:24;;;;;;;;;;;;;;;;;;5061198;28;20373;-69
2021/01/29 09:53:50;;;;;;;;;;;;;;;;;;5054981;28;19925;-69
2021/01/29 09:56:17;;;;;;;;;;;;;;;;;;5051600;28;19963;-69
2021/01/29 09:58:43;;;;;;;;;;;;;;;;;;5038820;28;19925;-69
2021/01/29 10:01:10;;;;;;;;;;;;;;;;;;5048912;28;19929;-69
2021/01/29 10:03:36;;;;;;;;;;;;;;;;;;5054152;28;20043;-70
2021/01/29 10:06:03;;;;;;;;;;;;;;;;;;5052393;28;19929;-70
2021/01/29 10:08:29;;;;;;;;;;;;;;;;;;5040798;28;20282;-69
2021/01/29 10:10:56;;;;;;;;;;;;;;;;;;5045899;28;20012;-69
2021/01/29 10:13:22;;;;;;;;;;;;;;;;;;5051393;28;20012;-69
2021/01/29 10:15:49;;;;;;;;;;;;;;;;;;5038745;28;19924;-69
2021/01/29 10:18:15;;;;;;;;;;;;;;;;;;5053591;28;20384;-69
2021/01/29 10:20:42;;;;;;;;;;;;;;;;;;5037684;28;20015;-70
2021/01/29 10:23:10;;;;;;;;;;;;;;;;;;5052811;28;19951;-69
2021/01/29 10:25:37;;;;;;;;;;;;;;;;;;5043930;28;19932;-69
2021/01/29 10:28:03;;;;;;;;;;;;;;;;;;5050972;28;19928;-69
2021/01/29 10:30:30;;;;;;;;;;;;;;;;;;5060191;28;19935;-70
2021/01/29 10:32:56;;;;;;;;;;;;;;;;;;5054968;28;20795;-68
2021/01/29 10:35:23;;;;;;;;;;;;;;;;;;5048368;28;20291;-68
2021/01/29 10:37:49;;;;;;;;;;;;;;;;;;5047730;28;19928;-68
2021/01/29 10:40:16;;;;;;;;;;;;;;;;;;5054204;28;20010;-69
2021/01/29 10:42:42;;;;;;;;;;;;;;;;;;5063421;28;19968;-70
2021/01/29 10:45:08;;;;;;;;;;;;;;;;;;5037381;28;19925;-70
2021/01/29 10:47:35;;;;;;;;;;;;;;;;;;5049244;28;20436;-69
2021/01/29 10:50:01;;;;;;;;;;;;;;;;;;5068698;28;19970;-69
2021/01/29 10:52:28;;;;;;;;;;;;;;;;;;5049383;28;19940;-69
2021/01/29 10:54:54;;;;;;;;;;;;;;;;;;5049192;28;20019;-69
2021/01/29 10:57:21;;;;;;;;;;;;;;;;;;5041414;28;19929;-69
2021/01/29 10:59:47;;;;;;;;;;;;;;;;;;5058128;28;19960;-69
2021/01/29 11:02:14;;;;;;;;;;;;;;;;;;5051405;28;19931;-68
2021/01/29 11:04:40;;;;;;;;;;;;;;;;;;5051666;28;19932;-69
2021/01/29 11:07:07;;;;;;;;;;;;;;;;;;5043649;28;19932;-70
2021/01/29 11:09:33;;;;;;;;;;;;;;;;;;5042744;28;19970;-67
2021/01/29 11:12:00;;;;;;;;;;;;;;;;;;5046858;28;19931;-68
2021/01/29 11:14:27;;;;;;;;;;;;;;;;;;5054446;28;19929;-68
2021/01/29 11:16:54;;;;;;;;;;;;;;;;;;5040392;28;19925;-69
2021/01/29 11:19:20;;;;;;;;;;;;;;;;;;5045741;28;19925;-70
2021/01/29 11:21:47;;;;;;;;;;;;;;;;;;5036092;28;19931;-70
2021/01/29 11:24:13;;;;;;;;;;;;;;;;;;5053359;28;19924;-69
2021/01/29 11:26:40;;;;;;;;;;;;;;;;;;5050900;28;19936;-69
2021/01/29 11:29:06;;;;;;;;;;;;;;;;;;5046133;28;20452;-68
2021/01/29 11:31:33;;;;;;;;;;;;;;;;;;5047059;28;19956;-69
2021/01/29 11:33:59;;;;;;;;;;;;;;;;;;5039334;28;20027;-69
2021/01/29 11:36:26;;;;;;;;;;;;;;;;;;5051057;28;20231;-68
2021/01/29 11:38:52;;;;;;;;;;;;;;;;;;5046903;28;19925;-69
2021/01/29 11:41:19;;;;;;;;;;;;;;;;;;5043449;28;19970;-69
2021/01/29 11:43:45;;;;;;;;;;;;;;;;;;5041786;28;19925;-70
2021/01/29 11:46:11;;;;;;;;;;;;;;;;;;5044493;28;19944;-69
2021/01/29 11:48:38;;;;;;;;;;;;;;;;;;5041398;28;20557;-68
2021/01/29 11:51:04;;;;;;;;;;;;;;;;;;5044446;28;19971;-69
2021/01/29 11:53:32;;;;;;;;;;;;;;;;;;5043781;28;19977;-69
2021/01/29 11:55:58;;;;;;;;;;;;;;;;;;5045400;28;19987;-70
2021/01/29 11:58:25;;;;;;;;;;;;;;;;;;5039081;28;19936;-68
2021/01/29 12:00:51;;;;;;;;;;;;;;;;;;5043014;28;19925;-68
2021/01/29 12:03:18;;;;;;;;;;;;;;;;;;5060276;28;19968;-69
2021/01/29 12:05:45;;;;;;;;;;;;;;;;;;5061945;28;20019;-70
2021/01/29 12:08:11;;;;;;;;;;;;;;;;;;5044990;28;20019;-68
2021/01/29 12:10:38;;;;;;;;;;;;;;;;;;5047030;28;20295;-68
2021/01/29 12:13:04;;;;;;;;;;;;;;;;;;5043195;28;19925;-69
2021/01/29 12:15:31;;;;;;;;;;;;;;;;;;5045737;28;20027;-69
2021/01/29 12:17:57;;;;;;;;;;;;;;;;;;5048774;28;20423;-69
2021/01/29 12:20:24;;;;;;;;;;;;;;;;;;5060173;28;20019;-68
2021/01/29 12:22:50;;;;;;;;;;;;;;;;;;5047147;28;20295;-69
2021/01/29 12:25:17;;;;;;;;;;;;;;;;;;5049623;28;19926;-70
2021/01/29 12:27:43;;;;;;;;;;;;;;;;;;5037410;28;20020;-69
2021/01/29 12:30:10;;;;;;;;;;;;;;;;;;5051000;28;20376;-69
2021/01/29 12:32:37;;;;;;;;;;;;;;;;;;5036185;28;19932;-70
2021/01/29 12:35:04;;;;;;;;;;;;;;;;;;5041639;28;19928;-70
2021/01/29 12:37:30;;;;;;;;;;;;;;;;;;5043346;28;19926;-68
2021/01/29 12:39:57;;;;;;;;;;;;;;;;;;5044902;28;19925;-69
2021/01/29 12:42:23;;;;;;;;;;;;;;;;;;5048242;28;19999;-71
2021/01/29 12:44:50;;;;;;;;;;;;;;;;;;5049068;28;19981;-70
2021/01/29 12:47:16;;;;;;;;;;;;;;;;;;5042895;28;20399;-71
2021/01/29 12:49:43;;;;;;;;;;;;;;;;;;5051573;28;20022;-71
2021/01/29 12:52:09;;;;;;;;;;;;;;;;;;5055823;28;19933;-70
2021/01/29 12:54:36;;;;;;;;;;;;;;;;;;5044585;28;19928;-70
2021/01/29 12:57:02;;;;;;;;;;;;;;;;;;5045293;28;19925;-71
2021/01/29 12:59:29;;;;;;;;;;;;;;;;;;5040027;28;20085;-69
2021/01/29 13:01:56;;;;;;;;;;;;;;;;;;5052672;28;19925;-70
2021/01/29 13:04:23;;;;;;;;;;;;;;;;;;5050602;28;19971;-69
2021/01/29 13:06:49;;;;;;;;;;;;;;;;;;5047353;28;20362;-71
2021/01/29 13:09:16;;;;;;;;;;;;;;;;;;5044658;28;19975;-69
2021/01/29 13:11:42;;;;;;;;;;;;;;;;;;5049449;28;20139;-69
2021/01/29 13:14:09;;;;;;;;;;;;;;;;;;5049173;28;19924;-68
2021/01/29 13:16:36;;;;;;;;;;;;;;;;;;5054602;28;19990;-69
2021/01/29 13:19:04;;;;;;;;;;;;;;;;;;5045337;28;19948;-69
2021/01/29 13:21:31;;;;;;;;;;;;;;;;;;5043980;28;20395;-68
2021/01/29 13:23:57;;;;;;;;;;;;;;;;;;5047658;28;20023;-68
2021/01/29 13:26:23;;;;;;;;;;;;;;;;;;5057160;28;19982;-68
2021/01/29 13:28:50;;;;;;;;;;;;;;;;;;5056582;28;20318;-68
2021/01/29 13:31:16;;;;;;;;;;;;;;;;;;5059564;28;19971;-67
2021/01/29 13:33:43;;;;;;;;;;;;;;;;;;5047281;28;19929;-68
2021/01/29 13:36:09;;;;;;;;;;;;;;;;;;5063676;22;19955;-67
2021/01/29 13:38:36;;;;;;;;;;;;;;;;;;5087737;28;20015;-67
2021/01/29 13:41:02;;;;;;;;;;;;;;;;;;5077392;28;19931;-68
2021/01/29 13:43:30;;;;;;;;;;;;;;;;;;5091713;28;19989;-68
2021/01/29 13:45:56;;;;;;;;;;;;;;;;;;5089574;28;19925;-68
2021/01/29 13:48:22;;;;;;;;;;;;;;;;;;5078308;28;20027;-68
2021/01/29 13:50:49;;;;;;;;;;;;;;;;;;5080277;28;19924;-67
2021/01/29 13:53:15;;;;;;;;;;;;;;;;;;5071862;28;19931;-67
2021/01/29 13:55:42;;;;;;;;;;;;;;;;;;5070666;28;19952;-67
2021/01/29 13:58:08;;;;;;;;;;;;;;;;;;5069924;28;20363;-68
2021/01/29 14:00:35;;;;;;;;;;;;;;;;;;5079468;28;19937;-68
2021/01/29 14:03:01;;;;;;;;;;;;;;;;;;5063386;28;20070;-67
2021/01/29 14:05:28;;;;;;;;;;;;;;;;;;5084738;28;20230;-68
2021/01/29 14:07:54;;;;;;;;;;;;;;;;;;5074852;28;20070;-67
2021/01/29 14:10:21;;;;;;;;;;;;;;;;;;5066654;28;20367;-68
2021/01/29 14:12:47;;;;;;;;;;;;;;;;;;5073771;28;19943;-68
2021/01/29 14:15:14;;;;;;;;;;;;;;;;;;5070185;28;19993;-68
2021/01/29 14:17:40;;;;;;;;;;;;;;;;;;5066325;28;19930;-68
2021/01/29 14:20:07;;;;;;;;;;;;;;;;;;5067207;28;19924;-68
2021/01/29 14:22:33;;;;;;;;;;;;;;;;;;5085638;28;19939;-68
2021/01/29 14:25:00;;;;;;;;;;;;;;;;;;5072183;28;19967;-67
2021/01/29 14:27:26;;;;;;;;;;;;;;;;;;5071064;28;20323;-67
2021/01/29 14:29:53;;;;;;;;;;;;;;;;;;5063242;28;19955;-67
2021/01/29 14:32:19;;;;;;;;;;;;;;;;;;5069968;28;20350;-67
2021/01/29 14:34:46;;;;;;;;;;;;;;;;;;5066292;28;19932;-67
2021/01/29 14:37:12;;;;;;;;;;;;;;;;;;5068161;28;20240;-68
2021/01/29 14:39:39;;;;;;;;;;;;;;;;;;5072910;28;20279;-67
2021/01/29 14:42:05;;;;;;;;;;;;;;;;;;5069818;28;19924;-69
2021/01/29 14:44:32;;;;;;;;;;;;;;;;;;5072197;28;19924;-67
2021/01/29 14:46:58;;;;;;;;;;;;;;;;;;5063356;28;20328;-68
2021/01/29 14:49:25;;;;;;;;;;;;;;;;;;5061500;28;20027;-67
2021/01/29 14:51:51;;;;;;;;;;;;;;;;;;5071506;28;19924;-69
2021/01/29 14:54:18;;;;;;;;;;;;;;;;;;5064738;28;19925;-68
2021/01/29 14:56:45;;;;;;;;;;;;;;;;;;5068008;28;19970;-69
2021/01/29 14:59:11;;;;;;;;;;;;;;;;;;5071731;28;19963;-71
2021/01/29 15:01:38;;;;;;;;;;;;;;;;;;5069937;28;19978;-69
2021/01/29 15:04:04;;;;;;;;;;;;;;;;;;5070327;28;19934;-69
2021/01/29 15:06:32;;;;;;;;;;;;;;;;;;5067660;28;19933;-69
2021/01/29 15:08:58;;;;;;;;;;;;;;;;;;5064153;28;20532;-69
2021/01/29 15:11:25;;;;;;;;;;;;;;;;;;5063074;28;20486;-69
2021/01/29 15:13:56;;;;;;;;;;;;;;;;;;5064243;28;21207;-69
2021/01/29 15:16:23;;;;;;;;;;;;;;;;;;5067913;28;20379;-70
2021/01/29 15:18:49;;;;;;;;;;;;;;;;;;5059624;28;19952;-69
2021/01/29 15:21:16;;;;;;;;;;;;;;;;;;5066813;28;20019;-70
2021/01/29 15:23:42;;;;;;;;;;;;;;;;;;5070431;28;19929;-68
2021/01/29 15:26:09;;;;;;;;;;;;;;;;;;5066720;28;19929;-70
2021/01/29 15:28:36;;;;;;;;;;;;;;;;;;5066726;28;20015;-69
2021/01/29 15:31:03;;;;;;;;;;;;;;;;;;5071321;28;19932;-70
2021/01/29 15:33:29;;;;;;;;;;;;;;;;;;5071990;28;19964;-69
2021/01/29 15:35:56;;;;;;;;;;;;;;;;;;5078968;28;20446;-70
2021/01/29 15:38:22;;;;;;;;;;;;;;;;;;5076346;28;20011;-69
2021/01/29 15:40:49;;;;;;;;;;;;;;;;;;5067225;28;19924;-69
2021/01/29 15:43:15;;;;;;;;;;;;;;;;;;5077601;28;19932;-69
2021/01/29 15:45:42;;;;;;;;;;;;;;;;;;5081550;28;19971;-69
2021/01/29 15:48:08;;;;;;;;;;;;;;;;;;5073660;28;19924;-70
2021/01/29 15:50:35;;;;;;;;;;;;;;;;;;5073144;28;20292;-71
2021/01/29 15:53:01;;;;;;;;;;;;;;;;;;5075442;28;19924;-70
2021/01/29 15:55:28;;;;;;;;;;;;;;;;;;5068662;28;19986;-69
2021/01/29 15:57:56;;;;;;;;;;;;;;;;;;5073384;28;19924;-69
2021/01/29 16:00:23;;;;;;;;;;;;;;;;;;5070862;28;19928;-69
2021/01/29 16:02:50;;;;;;;;;;;;;;;;;;5069163;28;19924;-69
2021/01/29 16:05:16;;;;;;;;;;;;;;;;;;5071240;28;20041;-69
2021/01/29 16:07:45;;;;;;;;;;;;;;;;;;5076809;28;19924;-69
2021/01/29 16:10:12;;;;;;;;;;;;;;;;;;5063215;28;19970;-69
2021/01/29 16:12:38;;;;;;;;;;;;;;;;;;5072232;28;20023;-70
2021/01/29 16:15:05;;;;;;;;;;;;;;;;;;5076280;28;20007;-70
2021/01/29 16:17:31;;;;;;;;;;;;;;;;;;5079714;28;20602;-69
2021/01/29 16:19:58;;;;;;;;;;;;;;;;;;5075465;28;20023;-70
2021/01/29 16:22:24;;;;;;;;;;;;;;;;;;5077102;28;20324;-70
2021/01/29 16:24:51;;;;;;;;;;;;;;;;;;5075513;28;19924;-69
2021/01/29 16:27:18;;;;;;;;;;;;;;;;;;5077056;28;20137;-69
2021/01/29 16:29:44;;;;;;;;;;;;;;;;;;5073553;28;19979;-69
2021/01/29 16:32:10;;;;;;;;;;;;;;;;;;5078835;28;20015;-69
2021/01/29 16:34:37;;;;;;;;;;;;;;;;;;5073531;28;19924;-69
2021/01/29 16:37:04;;;;;;;;;;;;;;;;;;5077957;28;19924;-69
2021/01/29 16:39:30;;;;;;;;;;;;;;;;;;5069041;28;20049;-69